createdAt,value
2018-12-06T00:03:25.467Z,1.90
2018-12-06T00:05:58.261Z,2.00
2018-12-06T00:08:32.469Z,1.90
2018-12-06T00:18:09.494Z,1.80
2018-12-06T00:20:43.092Z,1.70
2018-12-06T00:23:13.476Z,1.70
2018-12-06T00:25:46.986Z,1.70
2018-12-06T00:28:20.430Z,1.70
2018-12-06T00:31:16.258Z,1.70
2018-12-06T00:33:49.050Z,1.80
2018-12-06T00:36:22.959Z,1.80
2018-12-06T00:38:55.695Z,1.80
2018-12-06T00:41:33.378Z,1.80
2018-12-06T00:44:12.510Z,1.80
2018-12-06T00:46:45.401Z,1.80
2018-12-06T00:49:18.944Z,1.70
2018-12-06T00:51:53.059Z,1.70
2018-12-06T00:54:30.731Z,1.70
2018-12-06T00:57:04.134Z,1.70
2018-12-06T01:06:34.083Z,1.60
2018-12-06T01:09:11.498Z,1.60
2018-12-06T01:11:48.324Z,1.70
2018-12-06T01:14:20.719Z,1.70
2018-12-06T01:16:51.045Z,1.70
2018-12-06T01:19:29.611Z,1.70
2018-12-06T01:22:07.367Z,1.70
2018-12-06T01:24:40.765Z,1.60
2018-12-06T01:27:14.406Z,1.60
2018-12-06T01:29:48.591Z,1.60
2018-12-06T01:32:18.425Z,1.70
2018-12-06T01:34:52.029Z,1.70
2018-12-06T01:37:22.507Z,1.70
2018-12-06T01:39:56.006Z,1.70
2018-12-06T01:42:29.529Z,1.70
2018-12-06T01:45:03.754Z,1.70
2018-12-06T01:47:37.479Z,1.70
2018-12-06T01:50:15.358Z,1.70
2018-12-06T01:52:52.587Z,1.60
2018-12-06T01:55:29.334Z,1.60
2018-12-06T01:58:02.762Z,1.60
2018-12-06T02:00:40.230Z,1.60
2018-12-06T02:03:12.839Z,1.60
2018-12-06T02:05:46.362Z,1.60
2018-12-06T02:08:20.426Z,1.60
2018-12-06T02:10:55.146Z,1.50
2018-12-06T02:13:31.999Z,1.40
2018-12-06T02:16:08.533Z,1.40
2018-12-06T02:18:38.018Z,1.30
2018-12-06T02:26:11.523Z,1.20
2018-12-06T02:28:50.258Z,1.20
2018-12-06T02:31:28.404Z,1.30
2018-12-06T02:33:59.161Z,1.30
2018-12-06T02:36:45.538Z,1.30
2018-12-06T02:39:22.389Z,1.30
2018-12-06T02:42:00.514Z,1.30
2018-12-06T02:44:31.353Z,1.30
2018-12-06T02:47:01.049Z,1.20
2018-12-06T02:49:31.407Z,1.20
2018-12-06T02:52:08.879Z,1.20
2018-12-06T02:54:39.057Z,1.20
2018-12-06T02:57:12.918Z,1.10
2018-12-06T02:59:46.503Z,1.10
2018-12-06T03:02:23.052Z,1.10
2018-12-06T03:05:00.496Z,1.00
2018-12-06T03:07:34.032Z,1.00
2018-12-06T03:10:11.551Z,1.00
2018-12-06T03:12:41.182Z,0.90
2018-12-06T03:15:19.295Z,0.90
2018-12-06T03:17:57.073Z,0.90
2018-12-06T03:20:30.729Z,0.90
2018-12-06T03:23:04.271Z,0.90
2018-12-06T03:25:37.800Z,0.90
2018-12-06T03:28:11.306Z,1.00
2018-12-06T03:30:43.796Z,1.00
2018-12-06T03:33:17.309Z,1.00
2018-12-06T03:35:54.768Z,1.10
2018-12-06T03:38:28.234Z,1.10
2018-12-06T03:40:57.836Z,1.20
2018-12-06T03:43:35.376Z,1.20
2018-12-06T03:46:08.874Z,1.30
2018-12-06T03:48:42.417Z,1.30
2018-12-06T03:51:16.052Z,1.40
2018-12-06T03:53:53.414Z,1.40
2018-12-06T03:56:30.922Z,1.40
2018-12-06T03:59:07.538Z,1.40
2018-12-06T04:01:46.127Z,1.40
2018-12-06T04:04:23.594Z,1.50
2018-12-06T04:06:56.153Z,1.50
2018-12-06T04:09:29.689Z,1.50
2018-12-06T04:11:59.141Z,1.50
2018-12-06T04:14:28.626Z,1.50
2018-12-06T04:17:03.006Z,1.50
2018-12-06T04:19:40.587Z,1.50
2018-12-06T04:22:18.261Z,1.50
2018-12-06T04:24:50.735Z,1.50
2018-12-06T04:27:28.269Z,1.50
2018-12-06T04:30:07.756Z,1.50
2018-12-06T04:32:46.335Z,1.50
2018-12-06T04:35:24.709Z,1.50
2018-12-06T04:37:55.329Z,1.50
2018-12-06T04:40:24.955Z,1.50
2018-12-06T04:43:03.176Z,1.50
2018-12-06T04:45:36.024Z,1.50
2018-12-06T04:48:10.263Z,1.50
2018-12-06T04:50:48.958Z,1.50
2018-12-06T04:53:26.453Z,1.50
2018-12-06T04:56:03.832Z,1.50
2018-12-06T04:58:37.667Z,1.50
2018-12-06T05:01:07.340Z,1.50
2018-12-06T05:03:45.096Z,1.50
2018-12-06T05:06:18.328Z,1.50
2018-12-06T05:08:56.323Z,1.50
2018-12-06T05:11:26.837Z,1.50
2018-12-06T05:14:00.223Z,1.60
2018-12-06T05:16:33.055Z,1.60
2018-12-06T05:19:10.169Z,1.60
2018-12-06T05:21:40.090Z,1.50
2018-12-06T05:24:17.939Z,1.60
2018-12-06T05:26:51.012Z,1.60
2018-12-06T05:29:23.955Z,1.60
2018-12-06T05:31:53.838Z,1.60
2018-12-06T05:34:30.712Z,1.60
2018-12-06T05:37:03.777Z,1.60
2018-12-06T05:39:36.703Z,1.70
2018-12-06T05:42:09.660Z,1.70
2018-12-06T05:44:42.618Z,1.70
2018-12-06T05:47:23.376Z,1.70
2018-12-06T05:50:00.630Z,1.70
2018-12-06T05:52:34.325Z,1.60
2018-12-06T05:55:09.919Z,1.60
2018-12-06T05:57:43.468Z,1.60
2018-12-06T06:00:13.370Z,1.60
2018-12-06T06:02:46.402Z,1.60
2018-12-06T06:05:23.389Z,1.60
2018-12-06T06:08:00.397Z,1.60
2018-12-06T06:10:37.614Z,1.50
2018-12-06T06:13:36.169Z,1.60
2018-12-06T06:16:05.560Z,1.60
2018-12-06T06:18:44.455Z,1.60
2018-12-06T06:21:17.485Z,1.50
2018-12-06T06:23:48.116Z,1.60
2018-12-06T06:26:25.397Z,1.50
2018-12-06T06:28:56.301Z,1.50
2018-12-06T06:31:33.278Z,1.50
2018-12-06T06:37:22.755Z,1.50
2018-12-06T06:43:31.375Z,1.60
2018-12-06T06:49:36.940Z,1.60
2018-12-06T06:55:06.155Z,1.60
2018-12-06T06:57:43.111Z,1.60
2018-12-06T07:00:20.001Z,1.60
2018-12-06T07:02:54.878Z,1.60
2018-12-06T07:05:27.924Z,1.60
2018-12-06T07:08:01.704Z,1.60
2018-12-06T07:10:40.998Z,1.70
2018-12-06T07:13:18.059Z,1.70
2018-12-06T07:15:55.703Z,1.70
2018-12-06T07:18:28.930Z,1.80
2018-12-06T07:21:07.485Z,1.80
2018-12-06T07:30:41.241Z,1.90
2018-12-06T07:36:41.567Z,1.90
2018-12-06T07:46:12.935Z,2.00
2018-12-06T07:59:18.032Z,2.20
2018-12-06T08:01:50.983Z,2.20
2018-12-06T08:07:54.487Z,2.40
2018-12-06T08:10:27.513Z,2.60
2018-12-06T08:13:00.314Z,2.70
2018-12-06T08:15:31.004Z,2.80
2018-12-06T08:21:35.712Z,2.80
2018-12-06T08:24:10.665Z,2.70
2018-12-06T08:26:43.900Z,2.80
2018-12-06T08:29:17.703Z,2.80
2018-12-06T08:31:47.619Z,2.80
2018-12-06T08:48:11.153Z,3.00
2018-12-06T08:50:45.754Z,3.00
2018-12-06T08:56:51.445Z,3.00
2018-12-06T08:59:29.462Z,2.90
2018-12-06T09:05:30.206Z,2.90
2018-12-06T09:18:36.425Z,3.20
2018-12-06T09:28:02.351Z,3.40
2018-12-06T09:44:32.990Z,3.40
2018-12-06T09:47:07.684Z,3.40
2018-12-06T09:53:07.473Z,3.40
2018-12-06T09:55:40.470Z,3.40
2018-12-06T10:01:41.059Z,3.50
2018-12-06T10:11:17.344Z,3.80
2018-12-06T10:17:20.993Z,3.70
2018-12-06T10:26:51.953Z,3.80
2018-12-06T10:29:25.915Z,3.70
2018-12-06T10:32:03.127Z,3.80
2018-12-06T10:34:42.949Z,3.90
2018-12-06T10:37:13.250Z,3.90
2018-12-06T10:46:41.329Z,4.00
2018-12-06T10:49:12.014Z,4.00
2018-12-06T10:58:43.414Z,3.80
2018-12-06T11:22:52.911Z,3.80
2018-12-06T11:25:26.926Z,3.90
2018-12-06T11:31:25.998Z,3.80
2018-12-06T11:40:56.698Z,4.00
2018-12-06T11:43:34.246Z,3.80
2018-12-06T11:46:07.733Z,3.70
2018-12-06T11:48:42.417Z,3.70
2018-12-06T12:15:39.250Z,3.70
2018-12-06T12:21:42.765Z,3.70
2018-12-06T12:27:39.435Z,3.70
2018-12-06T12:30:16.406Z,3.70
2018-12-06T12:36:19.935Z,3.70
2018-12-06T12:49:20.957Z,3.70
2018-12-06T12:51:57.945Z,3.70
2018-12-06T12:58:02.535Z,3.70
2018-12-06T13:00:42.596Z,3.80
2018-12-06T13:03:19.655Z,3.80
2018-12-06T13:05:52.595Z,3.80
2018-12-06T13:18:55.258Z,3.80
2018-12-06T13:21:33.563Z,3.80
2018-12-06T13:27:34.135Z,3.70
2018-12-06T13:37:06.459Z,3.70
2018-12-06T13:39:44.364Z,3.70
2018-12-06T13:42:23.645Z,3.70
2018-12-06T13:45:02.192Z,3.60
2018-12-06T13:47:39.484Z,3.60
2018-12-06T14:00:40.443Z,3.60
2018-12-06T14:03:15.049Z,3.60
2018-12-06T14:05:49.301Z,3.70
2018-12-06T14:16:37.215Z,3.70
2018-12-06T14:19:16.101Z,3.70
2018-12-06T14:21:46.377Z,3.70
2018-12-06T14:31:34.558Z,3.60
2018-12-06T14:37:45.735Z,3.60
2018-12-06T14:50:55.158Z,3.50
2018-12-06T14:53:47.701Z,3.40
2018-12-06T14:56:18.662Z,3.40
2018-12-06T15:06:04.162Z,3.20
2018-12-06T15:15:40.007Z,3.10
2018-12-06T15:21:41.272Z,3.10
2018-12-06T15:24:14.305Z,3.10
2018-12-06T15:37:19.314Z,2.90
2018-12-06T16:00:42.127Z,2.40
2018-12-06T16:03:15.804Z,2.10
2018-12-06T16:05:53.015Z,1.80
2018-12-06T16:08:22.910Z,1.70
2018-12-06T16:14:29.627Z,1.30
2018-12-06T16:16:59.442Z,1.40
2018-12-06T16:23:03.106Z,1.50
2018-12-06T16:25:37.798Z,1.70
2018-12-06T16:28:07.909Z,1.80
2018-12-06T16:30:45.978Z,1.90
2018-12-06T16:33:18.766Z,1.90
2018-12-06T16:35:55.829Z,1.90
2018-12-06T16:41:51.395Z,2.00
2018-12-06T16:51:26.382Z,2.10
2018-12-06T16:57:41.359Z,2.20
2018-12-06T17:07:26.518Z,2.30
2018-12-06T17:13:49.752Z,2.20
2018-12-06T17:23:20.827Z,2.20
2018-12-06T17:25:57.834Z,2.20
2018-12-06T17:35:39.552Z,2.30
2018-12-06T17:38:17.899Z,2.40
2018-12-06T17:40:51.113Z,2.30
2018-12-06T17:43:28.826Z,2.40
2018-12-06T17:45:58.993Z,2.40
2018-12-06T17:48:36.980Z,2.40
2018-12-06T17:54:00.784Z,2.40
2018-12-06T18:00:45.535Z,2.50
2018-12-06T18:09:21.448Z,2.50
2018-12-06T18:11:51.653Z,2.20
2018-12-06T18:14:29.328Z,2.00
2018-12-06T18:20:56.234Z,1.80
2018-12-06T18:23:39.506Z,1.60
2018-12-06T18:27:15.525Z,1.40
2018-12-06T18:29:46.844Z,1.40
2018-12-06T18:32:44.658Z,1.20
2018-12-06T18:38:52.094Z,0.90
2018-12-06T18:44:45.932Z,0.70
2018-12-06T18:47:21.459Z,0.60
2018-12-06T18:50:00.691Z,0.50
2018-12-06T18:56:02.168Z,0.40
2018-12-06T18:58:34.491Z,0.30
2018-12-06T19:01:08.849Z,0.20
2018-12-06T19:03:50.718Z,0.20
2018-12-06T19:06:20.716Z,0.10
2018-12-06T19:08:58.441Z,0.10
2018-12-06T19:11:28.863Z,0.10
2018-12-06T19:14:06.592Z,0.00
2018-12-06T19:16:39.572Z,0.00
2018-12-06T19:19:29.671Z,-0.10
2018-12-06T19:25:20.057Z,-0.20
2018-12-06T19:27:52.965Z,-0.30
2018-12-06T19:30:25.937Z,-0.40
2018-12-06T19:33:03.155Z,-0.40
2018-12-06T19:39:01.284Z,-0.40
2018-12-06T19:45:07.909Z,-0.60
2018-12-06T19:47:40.924Z,-0.50
2018-12-06T19:50:14.747Z,-0.60
2018-12-06T19:56:14.250Z,-0.60
2018-12-06T19:58:44.882Z,-0.60
2018-12-06T20:01:18.208Z,-0.70
2018-12-06T20:07:18.615Z,-0.70
2018-12-06T20:09:51.646Z,-0.80
2018-12-06T20:12:21.510Z,-0.80
2018-12-06T20:21:54.622Z,-0.80
2018-12-06T20:24:31.707Z,-0.80
2018-12-06T20:27:08.718Z,-0.70
2018-12-06T20:29:41.510Z,-0.80
2018-12-06T20:32:14.976Z,-0.90
2018-12-06T20:38:18.058Z,-0.90
2018-12-06T20:44:17.566Z,-0.90
2018-12-06T20:53:48.943Z,-0.80
2018-12-06T21:03:13.959Z,-0.80
2018-12-06T21:09:31.258Z,-0.90
2018-12-06T21:46:46.947Z,-1.00
2018-12-06T21:52:49.095Z,-0.90
2018-12-06T21:55:23.422Z,-0.90
2018-12-06T22:08:25.291Z,-1.00
2018-12-06T22:14:26.653Z,-0.90
2018-12-06T22:17:03.746Z,-1.00
2018-12-06T22:28:48.724Z,-0.90
2018-12-06T22:34:58.387Z,-0.90
2018-12-06T22:37:37.959Z,-0.90
2018-12-06T22:40:18.099Z,-0.90
2018-12-06T23:03:55.807Z,-1.10
2018-12-06T23:06:26.243Z,-1.10
2018-12-06T23:09:04.790Z,-1.10
2018-12-06T23:11:38.243Z,-1.10
2018-12-06T23:17:45.347Z,-0.90
2018-12-06T23:20:23.946Z,-0.80
2018-12-06T23:23:03.591Z,-0.80
2018-12-06T23:36:01.491Z,-0.70
2018-12-06T23:38:38.885Z,-0.70
2018-12-06T23:41:12.249Z,-0.80
